sensor_id;sensor_type;location;lat;lon;timestamp;P1;durP1;ratioP1;P2;durP2;ratioP2
13032;SDS011;6583;42.632;23.298;2022-08-19T00:00:34;5.95;;;5.55;;
13032;SDS011;6583;42.632;23.298;2022-08-19T00:03:01;5.68;;;5.18;;
13032;SDS011;6583;42.632;23.298;2022-08-19T00:05:29;5.43;;;5.03;;
13032;SDS011;6583;42.632;23.298;2022-08-19T00:07:56;5.47;;;5.05;;
13032;SDS011;6583;42.632;23.298;2022-08-19T00:10:23;5.28;;;4.78;;
13032;SDS011;6583;42.632;23.298;2022-08-19T00:12:50;5.63;;;5.13;;
13032;SDS011;6583;42.632;23.298;2022-08-19T00:15:17;5.97;;;5.47;;
13032;SDS011;6583;42.632;23.298;2022-08-19T00:17:46;5.28;;;4.88;;
13032;SDS011;6583;42.632;23.298;2022-08-19T00:20:14;5.70;;;5.20;;
13032;SDS011;6583;42.632;23.298;2022-08-19T00:22:45;5.65;;;5.25;;
13032;SDS011;6583;42.632;23.298;2022-08-19T00:25:12;6.85;;;5.70;;
13032;SDS011;6583;42.632;23.298;2022-08-19T00:27:40;5.88;;;5.38;;
13032;SDS011;6583;42.632;23.298;2022-08-19T00:30:07;5.97;;;5.38;;
13032;SDS011;6583;42.632;23.298;2022-08-19T00:32:35;5.78;;;5.28;;
13032;SDS011;6583;42.632;23.298;2022-08-19T00:35:02;5.63;;;5.13;;
13032;SDS011;6583;42.632;23.298;2022-08-19T00:37:30;5.75;;;5.32;;
13032;SDS011;6583;42.632;23.298;2022-08-19T00:39:59;6.32;;;5.72;;
13032;SDS011;6583;42.632;23.298;2022-08-19T00:42:27;5.75;;;5.25;;
13032;SDS011;6583;42.632;23.298;2022-08-19T00:44:54;5.93;;;5.35;;
13032;SDS011;6583;42.632;23.298;2022-08-19T00:47:21;5.70;;;5.10;;
13032;SDS011;6583;42.632;23.298;2022-08-19T00:49:48;5.32;;;4.93;;
13032;SDS011;6583;42.632;23.298;2022-08-19T00:52:18;6.20;;;5.70;;
13032;SDS011;6583;42.632;23.298;2022-08-19T00:54:48;6.00;;;5.47;;
13032;SDS011;6583;42.632;23.298;2022-08-19T00:57:18;5.53;;;5.05;;
13032;SDS011;6583;42.632;23.298;2022-08-19T00:59:51;5.95;;;5.05;;
13032;SDS011;6583;42.632;23.298;2022-08-19T01:02:20;5.32;;;4.93;;
13032;SDS011;6583;42.632;23.298;2022-08-19T01:04:47;6.07;;;5.30;;
13032;SDS011;6583;42.632;23.298;2022-08-19T01:07:14;5.50;;;5.00;;
13032;SDS011;6583;42.632;23.298;2022-08-19T01:09:41;6.55;;;5.40;;
13032;SDS011;6583;42.632;23.298;2022-08-19T01:12:08;9.02;;;5.50;;
13032;SDS011;6583;42.632;23.298;2022-08-19T01:14:36;6.13;;;5.55;;
13032;SDS011;6583;42.632;23.298;2022-08-19T01:17:06;5.35;;;4.95;;
13032;SDS011;6583;42.632;23.298;2022-08-19T01:19:35;5.43;;;5.03;;
13032;SDS011;6583;42.632;23.298;2022-08-19T01:22:05;5.65;;;5.15;;
13032;SDS011;6583;42.632;23.298;2022-08-19T01:24:39;5.50;;;5.10;;
13032;SDS011;6583;42.632;23.298;2022-08-19T01:27:06;5.20;;;4.80;;
13032;SDS011;6583;42.632;23.298;2022-08-19T01:29:34;5.97;;;5.22;;
13032;SDS011;6583;42.632;23.298;2022-08-19T01:32:04;6.20;;;5.65;;
13032;SDS011;6583;42.632;23.298;2022-08-19T01:34:31;5.35;;;4.85;;
13032;SDS011;6583;42.632;23.298;2022-08-19T01:36:59;6.22;;;5.10;;
13032;SDS011;6583;42.632;23.298;2022-08-19T01:39:27;5.65;;;5.15;;
13032;SDS011;6583;42.632;23.298;2022-08-19T01:41:55;5.82;;;5.32;;
13032;SDS011;6583;42.632;23.298;2022-08-19T01:44:22;5.10;;;4.70;;
13032;SDS011;6583;42.632;23.298;2022-08-19T01:46:50;5.80;;;5.30;;
13032;SDS011;6583;42.632;23.298;2022-08-19T01:49:18;5.60;;;5.10;;
13032;SDS011;6583;42.632;23.298;2022-08-19T01:51:47;5.97;;;5.47;;
13032;SDS011;6583;42.632;23.298;2022-08-19T01:54:15;5.65;;;5.22;;
13032;SDS011;6583;42.632;23.298;2022-08-19T01:56:44;5.53;;;4.80;;
13032;SDS011;6583;42.632;23.298;2022-08-19T01:59:13;5.63;;;5.13;;
13032;SDS011;6583;42.632;23.298;2022-08-19T02:01:42;5.50;;;5.00;;
13032;SDS011;6583;42.632;23.298;2022-08-19T02:04:09;5.60;;;5.03;;
13032;SDS011;6583;42.632;23.298;2022-08-19T02:06:36;5.25;;;4.85;;
13032;SDS011;6583;42.632;23.298;2022-08-19T02:09:07;5.25;;;4.85;;
13032;SDS011;6583;42.632;23.298;2022-08-19T02:11:34;5.60;;;5.10;;
13032;SDS011;6583;42.632;23.298;2022-08-19T02:14:04;5.20;;;4.80;;
13032;SDS011;6583;42.632;23.298;2022-08-19T02:16:35;5.32;;;4.72;;
13032;SDS011;6583;42.632;23.298;2022-08-19T02:19:03;5.20;;;4.80;;
13032;SDS011;6583;42.632;23.298;2022-08-19T02:21:30;5.63;;;5.13;;
13032;SDS011;6583;42.632;23.298;2022-08-19T02:23:57;5.70;;;5.20;;
13032;SDS011;6583;42.632;23.298;2022-08-19T02:26:24;5.30;;;4.80;;
13032;SDS011;6583;42.632;23.298;2022-08-19T02:28:52;5.50;;;4.85;;
13032;SDS011;6583;42.632;23.298;2022-08-19T02:31:22;5.65;;;5.13;;
13032;SDS011;6583;42.632;23.298;2022-08-19T02:33:51;5.38;;;4.88;;
13032;SDS011;6583;42.632;23.298;2022-08-19T02:36:19;5.43;;;5.00;;
13032;SDS011;6583;42.632;23.298;2022-08-19T02:38:46;5.38;;;4.90;;
13032;SDS011;6583;42.632;23.298;2022-08-19T02:41:12;5.85;;;4.90;;
13032;SDS011;6583;42.632;23.298;2022-08-19T02:43:42;5.18;;;4.78;;
13032;SDS011;6583;42.632;23.298;2022-08-19T02:46:13;5.15;;;4.75;;
13032;SDS011;6583;42.632;23.298;2022-08-19T02:48:42;5.13;;;4.68;;
13032;SDS011;6583;42.632;23.298;2022-08-19T02:51:16;5.30;;;4.90;;
13032;SDS011;6583;42.632;23.298;2022-08-19T02:53:44;5.70;;;5.20;;
13032;SDS011;6583;42.632;23.298;2022-08-19T02:56:11;4.95;;;4.55;;
13032;SDS011;6583;42.632;23.298;2022-08-19T02:58:37;5.20;;;4.80;;
13032;SDS011;6583;42.632;23.298;2022-08-19T03:01:05;5.13;;;4.72;;
13032;SDS011;6583;42.632;23.298;2022-08-19T03:03:32;4.57;;;4.18;;
13032;SDS011;6583;42.632;23.298;2022-08-19T03:06:06;4.45;;;4.07;;
13032;SDS011;6583;42.632;23.298;2022-08-19T03:08:36;4.80;;;4.40;;
13032;SDS011;6583;42.632;23.298;2022-08-19T03:11:03;5.15;;;4.75;;
13032;SDS011;6583;42.632;23.298;2022-08-19T03:13:30;4.90;;;4.45;;
13032;SDS011;6583;42.632;23.298;2022-08-19T03:15:57;4.80;;;4.40;;
13032;SDS011;6583;42.632;23.298;2022-08-19T03:18:24;6.53;;;4.47;;
13032;SDS011;6583;42.632;23.298;2022-08-19T03:20:51;4.57;;;4.15;;
13032;SDS011;6583;42.632;23.298;2022-08-19T03:23:19;4.57;;;4.18;;
13032;SDS011;6583;42.632;23.298;2022-08-19T03:25:48;4.50;;;4.10;;
13032;SDS011;6583;42.632;23.298;2022-08-19T03:28:17;4.40;;;4.10;;
13032;SDS011;6583;42.632;23.298;2022-08-19T03:30:54;4.60;;;4.13;;
13032;SDS011;6583;42.632;23.298;2022-08-19T03:33:22;4.78;;;4.38;;
13032;SDS011;6583;42.632;23.298;2022-08-19T03:35:59;4.75;;;4.32;;
13032;SDS011;6583;42.632;23.298;2022-08-19T03:38:26;4.88;;;4.47;;
13032;SDS011;6583;42.632;23.298;2022-08-19T03:40:54;5.03;;;4.53;;
13032;SDS011;6583;42.632;23.298;2022-08-19T03:43:21;5.10;;;4.60;;
13032;SDS011;6583;42.632;23.298;2022-08-19T03:45:47;5.28;;;4.57;;
13032;SDS011;6583;42.632;23.298;2022-08-19T03:48:16;4.32;;;4.03;;
13032;SDS011;6583;42.632;23.298;2022-08-19T03:50:42;4.90;;;4.40;;
13032;SDS011;6583;42.632;23.298;2022-08-19T03:53:09;4.53;;;4.00;;
13032;SDS011;6583;42.632;23.298;2022-08-19T03:55:38;5.72;;;4.20;;
13032;SDS011;6583;42.632;23.298;2022-08-19T03:58:07;6.18;;;4.75;;
13032;SDS011;6583;42.632;23.298;2022-08-19T04:00:36;4.65;;;4.25;;
13032;SDS011;6583;42.632;23.298;2022-08-19T04:03:02;4.40;;;4.10;;
13032;SDS011;6583;42.632;23.298;2022-08-19T04:05:29;4.95;;;4.45;;
13032;SDS011;6583;42.632;23.298;2022-08-19T04:07:56;5.10;;;4.70;;
13032;SDS011;6583;42.632;23.298;2022-08-19T04:10:23;5.13;;;4.63;;
13032;SDS011;6583;42.632;23.298;2022-08-19T04:12:50;4.78;;;4.38;;
13032;SDS011;6583;42.632;23.298;2022-08-19T04:15:18;4.75;;;4.35;;
13032;SDS011;6583;42.632;23.298;2022-08-19T04:17:45;4.80;;;4.40;;
13032;SDS011;6583;42.632;23.298;2022-08-19T04:20:12;4.78;;;4.38;;
13032;SDS011;6583;42.632;23.298;2022-08-19T04:22:39;5.63;;;4.57;;
13032;SDS011;6583;42.632;23.298;2022-08-19T04:25:06;4.55;;;4.22;;
13032;SDS011;6583;42.632;23.298;2022-08-19T04:27:33;8.98;;;5.05;;
13032;SDS011;6583;42.632;23.298;2022-08-19T04:30:00;4.72;;;4.32;;
13032;SDS011;6583;42.632;23.298;2022-08-19T04:32:28;5.72;;;4.43;;
13032;SDS011;6583;42.632;23.298;2022-08-19T04:34:56;5.15;;;4.75;;
13032;SDS011;6583;42.632;23.298;2022-08-19T04:37:23;11.15;;;5.20;;
13032;SDS011;6583;42.632;23.298;2022-08-19T04:39:51;6.53;;;4.68;;
13032;SDS011;6583;42.632;23.298;2022-08-19T04:42:35;8.65;;;4.63;;
13032;SDS011;6583;42.632;23.298;2022-08-19T04:45:05;6.20;;;4.80;;
13032;SDS011;6583;42.632;23.298;2022-08-19T04:47:36;5.00;;;4.38;;
13032;SDS011;6583;42.632;23.298;2022-08-19T04:50:03;4.90;;;4.40;;
13032;SDS011;6583;42.632;23.298;2022-08-19T04:52:31;5.57;;;4.88;;
13032;SDS011;6583;42.632;23.298;2022-08-19T04:54:58;5.72;;;5.10;;
13032;SDS011;6583;42.632;23.298;2022-08-19T04:57:25;10.73;;;5.38;;
13032;SDS011;6583;42.632;23.298;2022-08-19T04:59:53;5.97;;;4.70;;
13032;SDS011;6583;42.632;23.298;2022-08-19T05:02:21;9.55;;;6.47;;
13032;SDS011;6583;42.632;23.298;2022-08-19T05:04:49;6.90;;;6.13;;
13032;SDS011;6583;42.632;23.298;2022-08-19T05:07:16;6.82;;;5.32;;
13032;SDS011;6583;42.632;23.298;2022-08-19T05:09:43;6.65;;;6.05;;
13032;SDS011;6583;42.632;23.298;2022-08-19T05:12:10;9.65;;;6.82;;
13032;SDS011;6583;42.632;23.298;2022-08-19T05:14:37;7.68;;;6.15;;
13032;SDS011;6583;42.632;23.298;2022-08-19T05:17:03;8.70;;;7.47;;
13032;SDS011;6583;42.632;23.298;2022-08-19T05:19:30;7.95;;;6.68;;
13032;SDS011;6583;42.632;23.298;2022-08-19T05:22:16;6.93;;;6.22;;
13032;SDS011;6583;42.632;23.298;2022-08-19T05:25:01;7.13;;;6.43;;
13032;SDS011;6583;42.632;23.298;2022-08-19T05:27:30;8.48;;;7.75;;
13032;SDS011;6583;42.632;23.298;2022-08-19T05:29:57;10.68;;;6.60;;
13032;SDS011;6583;42.632;23.298;2022-08-19T05:32:24;9.63;;;7.43;;
13032;SDS011;6583;42.632;23.298;2022-08-19T05:34:51;10.38;;;7.35;;
13032;SDS011;6583;42.632;23.298;2022-08-19T05:37:19;8.88;;;7.38;;
13032;SDS011;6583;42.632;23.298;2022-08-19T05:39:45;10.45;;;7.20;;
13032;SDS011;6583;42.632;23.298;2022-08-19T05:42:14;8.07;;;7.30;;
13032;SDS011;6583;42.632;23.298;2022-08-19T05:44:42;8.88;;;7.32;;
13032;SDS011;6583;42.632;23.298;2022-08-19T05:47:10;9.95;;;6.90;;
13032;SDS011;6583;42.632;23.298;2022-08-19T05:49:40;8.30;;;7.50;;
13032;SDS011;6583;42.632;23.298;2022-08-19T05:52:08;8.07;;;7.22;;
13032;SDS011;6583;42.632;23.298;2022-08-19T05:54:38;10.88;;;7.57;;
13032;SDS011;6583;42.632;23.298;2022-08-19T05:57:07;10.02;;;7.28;;
13032;SDS011;6583;42.632;23.298;2022-08-19T05:59:35;8.73;;;7.60;;
13032;SDS011;6583;42.632;23.298;2022-08-19T06:02:02;12.55;;;7.70;;
13032;SDS011;6583;42.632;23.298;2022-08-19T06:04:30;8.23;;;7.53;;
13032;SDS011;6583;42.632;23.298;2022-08-19T06:06:57;9.10;;;8.25;;
13032;SDS011;6583;42.632;23.298;2022-08-19T06:09:23;9.05;;;7.43;;
13032;SDS011;6583;42.632;23.298;2022-08-19T06:11:53;11.18;;;7.65;;
13032;SDS011;6583;42.632;23.298;2022-08-19T06:14:24;9.95;;;6.95;;
13032;SDS011;6583;42.632;23.298;2022-08-19T06:16:53;9.32;;;7.30;;
13032;SDS011;6583;42.632;23.298;2022-08-19T06:19:20;7.43;;;6.72;;
13032;SDS011;6583;42.632;23.298;2022-08-19T06:21:49;7.50;;;6.80;;
13032;SDS011;6583;42.632;23.298;2022-08-19T06:24:18;8.00;;;7.10;;
13032;SDS011;6583;42.632;23.298;2022-08-19T06:26:48;8.68;;;6.95;;
13032;SDS011;6583;42.632;23.298;2022-08-19T06:29:19;9.18;;;7.07;;
13032;SDS011;6583;42.632;23.298;2022-08-19T06:31:47;7.95;;;6.95;;
13032;SDS011;6583;42.632;23.298;2022-08-19T06:34:17;8.10;;;7.30;;
13032;SDS011;6583;42.632;23.298;2022-08-19T06:36:45;9.25;;;6.40;;
13032;SDS011;6583;42.632;23.298;2022-08-19T06:39:15;10.05;;;6.47;;
13032;SDS011;6583;42.632;23.298;2022-08-19T06:41:45;9.73;;;6.82;;
13032;SDS011;6583;42.632;23.298;2022-08-19T06:44:14;7.40;;;6.57;;
13032;SDS011;6583;42.632;23.298;2022-08-19T06:46:43;9.35;;;7.03;;
13032;SDS011;6583;42.632;23.298;2022-08-19T06:49:09;7.85;;;6.93;;
13032;SDS011;6583;42.632;23.298;2022-08-19T06:51:38;8.32;;;6.70;;
13032;SDS011;6583;42.632;23.298;2022-08-19T06:54:06;8.82;;;7.65;;
13032;SDS011;6583;42.632;23.298;2022-08-19T06:56:32;7.65;;;6.95;;
13032;SDS011;6583;42.632;23.298;2022-08-19T06:58:59;8.50;;;7.65;;
13032;SDS011;6583;42.632;23.298;2022-08-19T07:01:27;7.68;;;6.97;;
13032;SDS011;6583;42.632;23.298;2022-08-19T07:03:55;8.20;;;7.38;;
13032;SDS011;6583;42.632;23.298;2022-08-19T07:06:22;10.18;;;7.53;;
13032;SDS011;6583;42.632;23.298;2022-08-19T07:08:49;13.60;;;7.53;;
13032;SDS011;6583;42.632;23.298;2022-08-19T07:11:17;10.25;;;7.90;;
13032;SDS011;6583;42.632;23.298;2022-08-19T07:13:45;11.40;;;7.45;;
13032;SDS011;6583;42.632;23.298;2022-08-19T07:16:14;9.45;;;7.13;;
13032;SDS011;6583;42.632;23.298;2022-08-19T07:18:45;8.90;;;7.40;;
13032;SDS011;6583;42.632;23.298;2022-08-19T07:21:14;8.38;;;7.15;;
13032;SDS011;6583;42.632;23.298;2022-08-19T07:23:42;9.95;;;7.18;;
13032;SDS011;6583;42.632;23.298;2022-08-19T07:26:10;8.90;;;7.18;;
13032;SDS011;6583;42.632;23.298;2022-08-19T07:28:39;10.15;;;7.78;;
13032;SDS011;6583;42.632;23.298;2022-08-19T07:31:06;8.30;;;7.45;;
13032;SDS011;6583;42.632;23.298;2022-08-19T07:33:33;8.88;;;7.97;;
13032;SDS011;6583;42.632;23.298;2022-08-19T07:36:02;8.63;;;7.82;;
13032;SDS011;6583;42.632;23.298;2022-08-19T07:38:31;7.95;;;7.15;;
13032;SDS011;6583;42.632;23.298;2022-08-19T07:40:57;9.60;;;7.07;;
13032;SDS011;6583;42.632;23.298;2022-08-19T07:43:24;10.77;;;7.65;;
13032;SDS011;6583;42.632;23.298;2022-08-19T07:45:51;10.95;;;7.70;;
13032;SDS011;6583;42.632;23.298;2022-08-19T07:48:22;8.38;;;7.47;;
13032;SDS011;6583;42.632;23.298;2022-08-19T07:50:50;7.95;;;7.00;;
13032;SDS011;6583;42.632;23.298;2022-08-19T07:53:17;7.75;;;7.03;;
13032;SDS011;6583;42.632;23.298;2022-08-19T07:55:46;7.82;;;7.13;;
13032;SDS011;6583;42.632;23.298;2022-08-19T07:58:14;8.18;;;7.25;;
13032;SDS011;6583;42.632;23.298;2022-08-19T08:00:45;7.78;;;7.07;;
13032;SDS011;6583;42.632;23.298;2022-08-19T08:03:14;7.80;;;7.00;;
13032;SDS011;6583;42.632;23.298;2022-08-19T08:05:43;7.75;;;6.85;;
13032;SDS011;6583;42.632;23.298;2022-08-19T08:08:28;9.25;;;7.10;;
13032;SDS011;6583;42.632;23.298;2022-08-19T08:11:15;9.32;;;6.80;;
13032;SDS011;6583;42.632;23.298;2022-08-19T08:13:43;7.95;;;7.13;;
13032;SDS011;6583;42.632;23.298;2022-08-19T08:16:10;7.38;;;6.55;;
13032;SDS011;6583;42.632;23.298;2022-08-19T08:18:37;7.20;;;6.43;;
13032;SDS011;6583;42.632;23.298;2022-08-19T08:21:07;6.78;;;6.18;;
13032;SDS011;6583;42.632;23.298;2022-08-19T08:23:34;6.88;;;6.28;;
13032;SDS011;6583;42.632;23.298;2022-08-19T08:26:01;9.13;;;5.70;;
13032;SDS011;6583;42.632;23.298;2022-08-19T08:28:32;6.43;;;5.82;;
13032;SDS011;6583;42.632;23.298;2022-08-19T08:30:58;6.50;;;5.90;;
13032;SDS011;6583;42.632;23.298;2022-08-19T08:33:26;6.30;;;5.65;;
13032;SDS011;6583;42.632;23.298;2022-08-19T08:35:55;6.45;;;5.85;;
13032;SDS011;6583;42.632;23.298;2022-08-19T08:38:22;7.53;;;5.70;;
13032;SDS011;6583;42.632;23.298;2022-08-19T08:40:49;5.40;;;4.90;;
13032;SDS011;6583;42.632;23.298;2022-08-19T08:43:22;5.68;;;5.18;;
13032;SDS011;6583;42.632;23.298;2022-08-19T08:45:56;6.88;;;4.88;;
13032;SDS011;6583;42.632;23.298;2022-08-19T08:48:30;5.25;;;4.75;;
13032;SDS011;6583;42.632;23.298;2022-08-19T08:51:03;5.15;;;4.65;;
13032;SDS011;6583;42.632;23.298;2022-08-19T08:53:33;6.47;;;5.05;;
13032;SDS011;6583;42.632;23.298;2022-08-19T08:56:02;6.47;;;5.07;;
13032;SDS011;6583;42.632;23.298;2022-08-19T08:58:35;5.28;;;4.85;;
13032;SDS011;6583;42.632;23.298;2022-08-19T09:01:11;6.50;;;5.30;;
13032;SDS011;6583;42.632;23.298;2022-08-19T09:03:39;5.72;;;5.22;;
13032;SDS011;6583;42.632;23.298;2022-08-19T09:06:10;6.03;;;5.28;;
13032;SDS011;6583;42.632;23.298;2022-08-19T09:08:44;6.40;;;4.50;;
13032;SDS011;6583;42.632;23.298;2022-08-19T09:11:15;5.15;;;4.75;;
13032;SDS011;6583;42.632;23.298;2022-08-19T09:13:54;4.80;;;4.40;;
13032;SDS011;6583;42.632;23.298;2022-08-19T09:16:30;5.22;;;4.68;;
13032;SDS011;6583;42.632;23.298;2022-08-19T09:18:57;5.15;;;4.75;;
13032;SDS011;6583;42.632;23.298;2022-08-19T09:21:29;4.80;;;4.40;;
13032;SDS011;6583;42.632;23.298;2022-08-19T09:23:56;5.63;;;5.13;;
13032;SDS011;6583;42.632;23.298;2022-08-19T09:26:24;5.47;;;4.97;;
13032;SDS011;6583;42.632;23.298;2022-08-19T09:28:51;5.18;;;4.78;;
13032;SDS011;6583;42.632;23.298;2022-08-19T09:31:20;5.75;;;5.25;;
13032;SDS011;6583;42.632;23.298;2022-08-19T09:33:50;4.88;;;4.47;;
13032;SDS011;6583;42.632;23.298;2022-08-19T09:36:18;5.10;;;4.70;;
13032;SDS011;6583;42.632;23.298;2022-08-19T09:38:48;5.38;;;4.88;;
13032;SDS011;6583;42.632;23.298;2022-08-19T09:41:16;5.63;;;5.13;;
13032;SDS011;6583;42.632;23.298;2022-08-19T09:43:46;4.95;;;4.55;;
13032;SDS011;6583;42.632;23.298;2022-08-19T09:46:17;4.60;;;4.20;;
13032;SDS011;6583;42.632;23.298;2022-08-19T09:48:46;4.82;;;4.43;;
13032;SDS011;6583;42.632;23.298;2022-08-19T09:51:16;5.40;;;4.32;;
13032;SDS011;6583;42.632;23.298;2022-08-19T09:53:48;5.18;;;4.68;;
13032;SDS011;6583;42.632;23.298;2022-08-19T09:56:17;5.05;;;4.65;;
13032;SDS011;6583;42.632;23.298;2022-08-19T09:58:45;4.72;;;4.43;;
13032;SDS011;6583;42.632;23.298;2022-08-19T10:01:15;4.75;;;4.45;;
13032;SDS011;6583;42.632;23.298;2022-08-19T10:03:43;7.35;;;4.20;;
13032;SDS011;6583;42.632;23.298;2022-08-19T10:06:12;4.07;;;3.65;;
13032;SDS011;6583;42.632;23.298;2022-08-19T10:08:40;4.40;;;4.00;;
13032;SDS011;6583;42.632;23.298;2022-08-19T10:11:07;4.85;;;4.28;;
13032;SDS011;6583;42.632;23.298;2022-08-19T10:13:35;5.78;;;4.20;;
13032;SDS011;6583;42.632;23.298;2022-08-19T10:16:03;4.70;;;4.30;;
13032;SDS011;6583;42.632;23.298;2022-08-19T10:18:31;4.75;;;4.40;;
13032;SDS011;6583;42.632;23.298;2022-08-19T10:21:02;4.90;;;4.47;;
13032;SDS011;6583;42.632;23.298;2022-08-19T10:23:33;4.95;;;4.45;;
13032;SDS011;6583;42.632;23.298;2022-08-19T10:26:02;5.05;;;4.65;;
13032;SDS011;6583;42.632;23.298;2022-08-19T10:28:31;5.63;;;4.95;;
13032;SDS011;6583;42.632;23.298;2022-08-19T10:31:02;5.03;;;4.63;;
13032;SDS011;6583;42.632;23.298;2022-08-19T10:33:31;5.30;;;4.80;;
13032;SDS011;6583;42.632;23.298;2022-08-19T10:35:58;5.47;;;4.90;;
13032;SDS011;6583;42.632;23.298;2022-08-19T10:38:26;5.07;;;4.68;;
13032;SDS011;6583;42.632;23.298;2022-08-19T10:40:53;5.53;;;5.03;;
13032;SDS011;6583;42.632;23.298;2022-08-19T10:43:22;5.03;;;4.57;;
13032;SDS011;6583;42.632;23.298;2022-08-19T10:45:51;5.55;;;5.05;;
13032;SDS011;6583;42.632;23.298;2022-08-19T10:48:21;6.15;;;5.20;;
13032;SDS011;6583;42.632;23.298;2022-08-19T10:50:47;5.40;;;4.97;;
13032;SDS011;6583;42.632;23.298;2022-08-19T10:53:32;6.43;;;5.82;;
13032;SDS011;6583;42.632;23.298;2022-08-19T10:55:58;5.82;;;5.28;;
13032;SDS011;6583;42.632;23.298;2022-08-19T10:58:44;5.30;;;4.80;;
13032;SDS011;6583;42.632;23.298;2022-08-19T11:01:10;5.95;;;5.15;;
13032;SDS011;6583;42.632;23.298;2022-08-19T11:03:37;5.78;;;5.28;;
13032;SDS011;6583;42.632;23.298;2022-08-19T11:06:05;5.70;;;5.20;;
13032;SDS011;6583;42.632;23.298;2022-08-19T11:08:33;6.68;;;5.55;;
13032;SDS011;6583;42.632;23.298;2022-08-19T11:11:03;5.90;;;5.32;;
13032;SDS011;6583;42.632;23.298;2022-08-19T11:13:31;5.95;;;5.38;;
13032;SDS011;6583;42.632;23.298;2022-08-19T11:16:04;5.88;;;5.28;;
13032;SDS011;6583;42.632;23.298;2022-08-19T11:18:33;5.30;;;4.90;;
13032;SDS011;6583;42.632;23.298;2022-08-19T11:21:08;5.30;;;4.90;;
13032;SDS011;6583;42.632;23.298;2022-08-19T11:23:36;5.43;;;5.00;;
13032;SDS011;6583;42.632;23.298;2022-08-19T11:26:03;5.65;;;5.07;;
13032;SDS011;6583;42.632;23.298;2022-08-19T11:28:30;5.40;;;5.00;;
13032;SDS011;6583;42.632;23.298;2022-08-19T11:30:57;5.80;;;5.30;;
13032;SDS011;6583;42.632;23.298;2022-08-19T11:33:25;5.22;;;4.70;;
13032;SDS011;6583;42.632;23.298;2022-08-19T11:35:52;5.85;;;5.10;;
13032;SDS011;6583;42.632;23.298;2022-08-19T11:38:19;6.50;;;5.00;;
13032;SDS011;6583;42.632;23.298;2022-08-19T11:40:53;5.80;;;5.20;;
13032;SDS011;6583;42.632;23.298;2022-08-19T11:43:21;6.25;;;5.22;;
13032;SDS011;6583;42.632;23.298;2022-08-19T11:45:47;6.63;;;5.25;;
13032;SDS011;6583;42.632;23.298;2022-08-19T11:48:14;5.18;;;4.78;;
13032;SDS011;6583;42.632;23.298;2022-08-19T11:50:42;5.65;;;4.88;;
13032;SDS011;6583;42.632;23.298;2022-08-19T11:53:09;5.47;;;4.95;;
13032;SDS011;6583;42.632;23.298;2022-08-19T11:55:36;5.70;;;5.15;;
13032;SDS011;6583;42.632;23.298;2022-08-19T11:58:04;5.32;;;4.93;;
13032;SDS011;6583;42.632;23.298;2022-08-19T12:00:32;7.38;;;5.20;;
13032;SDS011;6583;42.632;23.298;2022-08-19T12:03:01;5.53;;;5.03;;
13032;SDS011;6583;42.632;23.298;2022-08-19T12:05:28;5.63;;;5.10;;
13032;SDS011;6583;42.632;23.298;2022-08-19T12:07:56;5.63;;;5.13;;
13032;SDS011;6583;42.632;23.298;2022-08-19T12:10:23;6.63;;;5.25;;
13032;SDS011;6583;42.632;23.298;2022-08-19T12:12:50;5.72;;;5.22;;
13032;SDS011;6583;42.632;23.298;2022-08-19T12:15:17;5.55;;;4.97;;
13032;SDS011;6583;42.632;23.298;2022-08-19T12:17:44;5.70;;;5.18;;
13032;SDS011;6583;42.632;23.298;2022-08-19T12:20:11;5.50;;;5.10;;
13032;SDS011;6583;42.632;23.298;2022-08-19T12:22:40;5.63;;;5.10;;
13032;SDS011;6583;42.632;23.298;2022-08-19T12:25:09;5.57;;;5.00;;
13032;SDS011;6583;42.632;23.298;2022-08-19T12:27:37;5.15;;;4.75;;
13032;SDS011;6583;42.632;23.298;2022-08-19T12:30:05;5.70;;;5.20;;
13032;SDS011;6583;42.632;23.298;2022-08-19T12:32:34;6.07;;;5.57;;
13032;SDS011;6583;42.632;23.298;2022-08-19T12:35:00;5.65;;;5.20;;
13032;SDS011;6583;42.632;23.298;2022-08-19T12:37:27;6.15;;;5.65;;
13032;SDS011;6583;42.632;23.298;2022-08-19T12:39:56;5.90;;;5.30;;
13032;SDS011;6583;42.632;23.298;2022-08-19T12:42:24;6.35;;;5.80;;
13032;SDS011;6583;42.632;23.298;2022-08-19T12:44:51;6.10;;;5.55;;
13032;SDS011;6583;42.632;23.298;2022-08-19T12:47:18;6.15;;;5.47;;
13032;SDS011;6583;42.632;23.298;2022-08-19T12:49:45;6.22;;;5.53;;
13032;SDS011;6583;42.632;23.298;2022-08-19T12:52:12;5.85;;;5.25;;
13032;SDS011;6583;42.632;23.298;2022-08-19T12:54:40;5.97;;;5.45;;
13032;SDS011;6583;42.632;23.298;2022-08-19T12:57:08;6.35;;;5.75;;
13032;SDS011;6583;42.632;23.298;2022-08-19T12:59:37;5.32;;;4.82;;
13032;SDS011;6583;42.632;23.298;2022-08-19T13:02:04;5.70;;;5.13;;
13032;SDS011;6583;42.632;23.298;2022-08-19T13:04:32;6.10;;;5.50;;
13032;SDS011;6583;42.632;23.298;2022-08-19T13:07:01;6.00;;;5.50;;
13032;SDS011;6583;42.632;23.298;2022-08-19T13:09:28;6.50;;;5.75;;
13032;SDS011;6583;42.632;23.298;2022-08-19T13:11:55;6.63;;;5.60;;
13032;SDS011;6583;42.632;23.298;2022-08-19T13:14:22;5.97;;;5.47;;
13032;SDS011;6583;42.632;23.298;2022-08-19T13:16:50;5.85;;;5.28;;
13032;SDS011;6583;42.632;23.298;2022-08-19T13:19:17;5.50;;;5.00;;
13032;SDS011;6583;42.632;23.298;2022-08-19T13:21:48;6.07;;;5.05;;
13032;SDS011;6583;42.632;23.298;2022-08-19T13:24:15;6.68;;;5.75;;
13032;SDS011;6583;42.632;23.298;2022-08-19T13:26:42;5.55;;;5.05;;
13032;SDS011;6583;42.632;23.298;2022-08-19T13:29:09;6.15;;;5.07;;
13032;SDS011;6583;42.632;23.298;2022-08-19T13:31:54;5.70;;;5.20;;
13032;SDS011;6583;42.632;23.298;2022-08-19T13:34:38;5.68;;;5.18;;
13032;SDS011;6583;42.632;23.298;2022-08-19T13:37:05;5.50;;;5.10;;
13032;SDS011;6583;42.632;23.298;2022-08-19T13:39:33;5.25;;;4.85;;
13032;SDS011;6583;42.632;23.298;2022-08-19T13:42:01;5.80;;;5.18;;
13032;SDS011;6583;42.632;23.298;2022-08-19T13:44:29;5.80;;;5.30;;
13032;SDS011;6583;42.632;23.298;2022-08-19T13:47:01;5.68;;;5.13;;
13032;SDS011;6583;42.632;23.298;2022-08-19T13:49:30;8.13;;;5.32;;
13032;SDS011;6583;42.632;23.298;2022-08-19T13:51:57;5.70;;;5.20;;
13032;SDS011;6583;42.632;23.298;2022-08-19T13:54:24;6.45;;;5.22;;
13032;SDS011;6583;42.632;23.298;2022-08-19T13:56:52;5.60;;;5.10;;
13032;SDS011;6583;42.632;23.298;2022-08-19T13:59:18;5.68;;;5.20;;
13032;SDS011;6583;42.632;23.298;2022-08-19T14:01:45;6.25;;;5.30;;
13032;SDS011;6583;42.632;23.298;2022-08-19T14:04:13;5.80;;;5.10;;
13032;SDS011;6583;42.632;23.298;2022-08-19T14:06:40;5.88;;;5.38;;
13032;SDS011;6583;42.632;23.298;2022-08-19T14:09:06;7.07;;;6.10;;
13032;SDS011;6583;42.632;23.298;2022-08-19T14:11:33;7.82;;;5.60;;
13032;SDS011;6583;42.632;23.298;2022-08-19T14:14:00;5.80;;;5.30;;
13032;SDS011;6583;42.632;23.298;2022-08-19T14:16:26;5.70;;;5.18;;
13032;SDS011;6583;42.632;23.298;2022-08-19T14:18:55;7.25;;;5.18;;
13032;SDS011;6583;42.632;23.298;2022-08-19T14:21:23;5.72;;;5.05;;
13032;SDS011;6583;42.632;23.298;2022-08-19T14:23:51;9.88;;;5.60;;
13032;SDS011;6583;42.632;23.298;2022-08-19T14:26:19;9.20;;;5.53;;
13032;SDS011;6583;42.632;23.298;2022-08-19T14:28:47;5.90;;;5.18;;
13032;SDS011;6583;42.632;23.298;2022-08-19T14:31:15;5.78;;;5.18;;
13032;SDS011;6583;42.632;23.298;2022-08-19T14:33:44;6.03;;;5.43;;
13032;SDS011;6583;42.632;23.298;2022-08-19T14:36:11;5.57;;;5.07;;
13032;SDS011;6583;42.632;23.298;2022-08-19T14:38:39;6.20;;;5.68;;
13032;SDS011;6583;42.632;23.298;2022-08-19T14:41:07;7.20;;;5.47;;
13032;SDS011;6583;42.632;23.298;2022-08-19T14:43:35;6.60;;;5.50;;
13032;SDS011;6583;42.632;23.298;2022-08-19T14:46:03;6.38;;;5.65;;
13032;SDS011;6583;42.632;23.298;2022-08-19T14:48:30;6.38;;;5.70;;
13032;SDS011;6583;42.632;23.298;2022-08-19T14:50:56;7.28;;;5.60;;
13032;SDS011;6583;42.632;23.298;2022-08-19T14:53:23;6.47;;;5.28;;
13032;SDS011;6583;42.632;23.298;2022-08-19T14:55:52;6.80;;;5.57;;